sensor_id;sensor_type;location;lat;lon;timestamp;temperature;humidity
17956;DHT22;27666;51.498;11.966;2022-09-01T00:00:47;15.60;99.90
17956;DHT22;27666;51.498;11.966;2022-09-01T00:03:33;15.60;99.90
17956;DHT22;27666;51.498;11.966;2022-09-01T00:06:22;15.60;99.90
17956;DHT22;27666;51.498;11.966;2022-09-01T00:09:11;15.70;99.90
17956;DHT22;27666;51.498;11.966;2022-09-01T00:11:58;15.70;99.90
17956;DHT22;27666;51.498;11.966;2022-09-01T00:14:46;15.70;99.90
17956;DHT22;27666;51.498;11.966;2022-09-01T00:17:33;15.70;99.90
17956;DHT22;27666;51.498;11.966;2022-09-01T00:20:19;15.70;99.90
17956;DHT22;27666;51.498;11.966;2022-09-01T00:23:05;15.60;99.90
17956;DHT22;27666;51.498;11.966;2022-09-01T00:25:52;15.70;99.90
17956;DHT22;27666;51.498;11.966;2022-09-01T00:28:39;15.70;99.90
17956;DHT22;27666;51.498;11.966;2022-09-01T00:31:27;15.60;99.90
17956;DHT22;27666;51.498;11.966;2022-09-01T00:34:14;15.60;99.90
17956;DHT22;27666;51.498;11.966;2022-09-01T00:37:01;15.60;99.90
17956;DHT22;27666;51.498;11.966;2022-09-01T00:39:47;15.50;99.90
17956;DHT22;27666;51.498;11.966;2022-09-01T00:42:34;15.50;99.90
17956;DHT22;27666;51.498;11.966;2022-09-01T00:45:20;15.50;99.90
17956;DHT22;27666;51.498;11.966;2022-09-01T00:48:08;15.40;99.90
17956;DHT22;27666;51.498;11.966;2022-09-01T00:50:55;15.40;99.90
17956;DHT22;27666;51.498;11.966;2022-09-01T00:53:42;15.40;99.90
17956;DHT22;27666;51.498;11.966;2022-09-01T00:56:31;15.30;99.90
17956;DHT22;27666;51.498;11.966;2022-09-01T00:59:20;15.30;99.90
17956;DHT22;27666;51.498;11.966;2022-09-01T01:02:07;15.30;99.90
17956;DHT22;27666;51.498;11.966;2022-09-01T01:04:57;15.30;99.90
17956;DHT22;27666;51.498;11.966;2022-09-01T01:07:43;15.20;99.90
17956;DHT22;27666;51.498;11.966;2022-09-01T01:10:33;15.20;99.90
17956;DHT22;27666;51.498;11.966;2022-09-01T01:13:21;15.30;99.90
17956;DHT22;27666;51.498;11.966;2022-09-01T01:16:10;15.20;99.90
17956;DHT22;27666;51.498;11.966;2022-09-01T01:19:00;15.30;99.90
17956;DHT22;27666;51.498;11.966;2022-09-01T01:21:48;15.30;99.90
17956;DHT22;27666;51.498;11.966;2022-09-01T01:25:02;15.30;99.90
17956;DHT22;27666;51.498;11.966;2022-09-01T01:27:49;15.30;99.90
17956;DHT22;27666;51.498;11.966;2022-09-01T01:30:38;15.30;99.90
17956;DHT22;27666;51.498;11.966;2022-09-01T01:33:30;15.30;99.90
17956;DHT22;27666;51.498;11.966;2022-09-01T01:36:21;15.20;99.90
17956;DHT22;27666;51.498;11.966;2022-09-01T01:39:17;15.20;99.90
17956;DHT22;27666;51.498;11.966;2022-09-01T01:42:05;15.10;99.90
17956;DHT22;27666;51.498;11.966;2022-09-01T01:44:53;15.00;99.90
17956;DHT22;27666;51.498;11.966;2022-09-01T01:47:40;15.10;99.90
17956;DHT22;27666;51.498;11.966;2022-09-01T01:50:28;15.10;99.90
17956;DHT22;27666;51.498;11.966;2022-09-01T01:53:20;15.00;99.90
17956;DHT22;27666;51.498;11.966;2022-09-01T01:56:07;15.00;99.90
17956;DHT22;27666;51.498;11.966;2022-09-01T01:58:55;15.00;99.90
17956;DHT22;27666;51.498;11.966;2022-09-01T02:01:43;15.00;99.90
17956;DHT22;27666;51.498;11.966;2022-09-01T02:04:33;14.90;99.90
17956;DHT22;27666;51.498;11.966;2022-09-01T02:07:20;14.90;99.90
17956;DHT22;27666;51.498;11.966;2022-09-01T02:10:07;14.90;99.90
17956;DHT22;27666;51.498;11.966;2022-09-01T02:12:54;14.80;99.90
17956;DHT22;27666;51.498;11.966;2022-09-01T02:15:51;14.80;99.90
17956;DHT22;27666;51.498;11.966;2022-09-01T02:18:40;14.80;99.90
17956;DHT22;27666;51.498;11.966;2022-09-01T02:21:27;14.70;99.90
17956;DHT22;27666;51.498;11.966;2022-09-01T02:24:14;14.70;99.90
17956;DHT22;27666;51.498;11.966;2022-09-01T02:27:00;14.70;99.90
17956;DHT22;27666;51.498;11.966;2022-09-01T02:29:47;14.70;99.90
17956;DHT22;27666;51.498;11.966;2022-09-01T02:32:41;14.70;99.90
17956;DHT22;27666;51.498;11.966;2022-09-01T02:35:27;14.60;99.90
17956;DHT22;27666;51.498;11.966;2022-09-01T02:38:23;14.40;99.90
17956;DHT22;27666;51.498;11.966;2022-09-01T02:41:11;14.30;99.90
17956;DHT22;27666;51.498;11.966;2022-09-01T02:43:58;14.50;99.90
17956;DHT22;27666;51.498;11.966;2022-09-01T02:46:47;14.40;99.90
17956;DHT22;27666;51.498;11.966;2022-09-01T02:49:35;14.30;99.90
17956;DHT22;27666;51.498;11.966;2022-09-01T02:52:23;14.10;99.90
17956;DHT22;27666;51.498;11.966;2022-09-01T02:55:10;14.10;99.90
17956;DHT22;27666;51.498;11.966;2022-09-01T02:57:56;13.90;99.90
17956;DHT22;27666;51.498;11.966;2022-09-01T03:00:43;13.90;99.90
17956;DHT22;27666;51.498;11.966;2022-09-01T03:03:29;13.90;99.90
17956;DHT22;27666;51.498;11.966;2022-09-01T03:06:17;13.80;99.90
17956;DHT22;27666;51.498;11.966;2022-09-01T03:09:07;13.70;99.90
17956;DHT22;27666;51.498;11.966;2022-09-01T03:11:55;13.80;99.90
17956;DHT22;27666;51.498;11.966;2022-09-01T03:14:42;13.70;99.90
17956;DHT22;27666;51.498;11.966;2022-09-01T03:17:28;13.70;99.90
17956;DHT22;27666;51.498;11.966;2022-09-01T03:20:15;13.70;99.90
17956;DHT22;27666;51.498;11.966;2022-09-01T03:23:07;13.60;99.90
17956;DHT22;27666;51.498;11.966;2022-09-01T03:25:54;13.60;99.90
17956;DHT22;27666;51.498;11.966;2022-09-01T03:28:41;13.60;99.90
17956;DHT22;27666;51.498;11.966;2022-09-01T03:31:28;13.50;99.90
17956;DHT22;27666;51.498;11.966;2022-09-01T03:34:16;13.60;99.90
17956;DHT22;27666;51.498;11.966;2022-09-01T03:37:05;13.60;99.90
17956;DHT22;27666;51.498;11.966;2022-09-01T03:39:53;13.50;99.90
17956;DHT22;27666;51.498;11.966;2022-09-01T03:42:43;13.40;99.90
17956;DHT22;27666;51.498;11.966;2022-09-01T03:45:31;13.50;99.90
17956;DHT22;27666;51.498;11.966;2022-09-01T03:48:20;13.50;99.90
17956;DHT22;27666;51.498;11.966;2022-09-01T03:51:06;13.40;99.90
17956;DHT22;27666;51.498;11.966;2022-09-01T03:53:54;13.30;99.90
17956;DHT22;27666;51.498;11.966;2022-09-01T03:56:44;13.30;99.90
17956;DHT22;27666;51.498;11.966;2022-09-01T03:59:32;13.30;99.90
17956;DHT22;27666;51.498;11.966;2022-09-01T04:02:19;13.30;99.90
17956;DHT22;27666;51.498;11.966;2022-09-01T04:05:09;13.40;99.90
17956;DHT22;27666;51.498;11.966;2022-09-01T04:07:57;13.60;99.90
17956;DHT22;27666;51.498;11.966;2022-09-01T04:10:47;13.70;99.90
17956;DHT22;27666;51.498;11.966;2022-09-01T04:13:40;13.90;99.90
17956;DHT22;27666;51.498;11.966;2022-09-01T04:16:29;14.00;99.90
17956;DHT22;27666;51.498;11.966;2022-09-01T04:19:35;14.00;99.90
17956;DHT22;27666;51.498;11.966;2022-09-01T04:22:23;14.10;99.90
17956;DHT22;27666;51.498;11.966;2022-09-01T04:25:14;14.20;99.90
17956;DHT22;27666;51.498;11.966;2022-09-01T04:28:01;14.20;99.90
17956;DHT22;27666;51.498;11.966;2022-09-01T04:31:02;14.20;99.90
17956;DHT22;27666;51.498;11.966;2022-09-01T04:33:51;14.20;99.90
17956;DHT22;27666;51.498;11.966;2022-09-01T04:36:39;14.10;99.90
17956;DHT22;27666;51.498;11.966;2022-09-01T04:39:27;14.20;99.90
17956;DHT22;27666;51.498;11.966;2022-09-01T04:42:14;14.10;99.90
17956;DHT22;27666;51.498;11.966;2022-09-01T04:45:03;14.30;99.90
17956;DHT22;27666;51.498;11.966;2022-09-01T04:47:57;14.30;99.90
17956;DHT22;27666;51.498;11.966;2022-09-01T04:50:44;14.30;99.90
17956;DHT22;27666;51.498;11.966;2022-09-01T04:53:33;14.40;99.90
17956;DHT22;27666;51.498;11.966;2022-09-01T04:56:20;14.20;99.90
17956;DHT22;27666;51.498;11.966;2022-09-01T04:59:08;14.20;99.90
17956;DHT22;27666;51.498;11.966;2022-09-01T05:01:55;14.40;99.90
17956;DHT22;27666;51.498;11.966;2022-09-01T05:04:46;14.30;99.90
17956;DHT22;27666;51.498;11.966;2022-09-01T05:07:34;14.30;99.90
17956;DHT22;27666;51.498;11.966;2022-09-01T05:10:22;14.30;99.90
17956;DHT22;27666;51.498;11.966;2022-09-01T05:13:15;14.40;99.90
17956;DHT22;27666;51.498;11.966;2022-09-01T05:16:04;14.30;99.90
17956;DHT22;27666;51.498;11.966;2022-09-01T05:18:52;14.40;99.90
17956;DHT22;27666;51.498;11.966;2022-09-01T05:21:44;14.60;99.90
17956;DHT22;27666;51.498;11.966;2022-09-01T05:24:31;14.50;99.90
17956;DHT22;27666;51.498;11.966;2022-09-01T05:27:24;14.60;99.90
17956;DHT22;27666;51.498;11.966;2022-09-01T05:30:13;14.50;99.90
17956;DHT22;27666;51.498;11.966;2022-09-01T05:33:01;14.70;99.90
17956;DHT22;27666;51.498;11.966;2022-09-01T05:35:53;14.60;99.90
17956;DHT22;27666;51.498;11.966;2022-09-01T05:38:41;14.80;99.90
17956;DHT22;27666;51.498;11.966;2022-09-01T05:41:27;14.80;99.90
17956;DHT22;27666;51.498;11.966;2022-09-01T05:44:14;14.80;99.90
17956;DHT22;27666;51.498;11.966;2022-09-01T05:47:00;15.00;99.90
17956;DHT22;27666;51.498;11.966;2022-09-01T05:49:47;15.10;99.90
17956;DHT22;27666;51.498;11.966;2022-09-01T05:52:36;15.10;99.90
17956;DHT22;27666;51.498;11.966;2022-09-01T05:55:26;15.20;99.90
17956;DHT22;27666;51.498;11.966;2022-09-01T05:58:14;15.30;99.90
17956;DHT22;27666;51.498;11.966;2022-09-01T06:01:01;15.40;99.90
17956;DHT22;27666;51.498;11.966;2022-09-01T06:03:48;15.50;99.90
17956;DHT22;27666;51.498;11.966;2022-09-01T06:06:41;15.60;99.90
17956;DHT22;27666;51.498;11.966;2022-09-01T06:09:50;15.60;99.90
17956;DHT22;27666;51.498;11.966;2022-09-01T06:12:39;15.60;99.90
17956;DHT22;27666;51.498;11.966;2022-09-01T06:15:27;15.60;99.90
17956;DHT22;27666;51.498;11.966;2022-09-01T06:18:15;15.80;99.90
17956;DHT22;27666;51.498;11.966;2022-09-01T06:21:03;15.80;99.90
17956;DHT22;27666;51.498;11.966;2022-09-01T06:23:52;16.00;99.90
17956;DHT22;27666;51.498;11.966;2022-09-01T06:26:39;16.10;99.90
17956;DHT22;27666;51.498;11.966;2022-09-01T06:29:27;15.90;99.90
17956;DHT22;27666;51.498;11.966;2022-09-01T06:32:15;16.00;99.90
17956;DHT22;27666;51.498;11.966;2022-09-01T06:35:03;16.10;99.90
17956;DHT22;27666;51.498;11.966;2022-09-01T06:37:53;16.20;99.90
17956;DHT22;27666;51.498;11.966;2022-09-01T06:40:40;16.20;99.90
17956;DHT22;27666;51.498;11.966;2022-09-01T06:43:27;16.20;99.90
17956;DHT22;27666;51.498;11.966;2022-09-01T06:46:16;16.20;99.90
17956;DHT22;27666;51.498;11.966;2022-09-01T06:49:04;16.10;99.90
17956;DHT22;27666;51.498;11.966;2022-09-01T06:51:56;16.20;99.90
17956;DHT22;27666;51.498;11.966;2022-09-01T06:54:42;16.10;99.90
17956;DHT22;27666;51.498;11.966;2022-09-01T06:57:29;16.30;99.90
17956;DHT22;27666;51.498;11.966;2022-09-01T07:00:36;16.40;99.90
17956;DHT22;27666;51.498;11.966;2022-09-01T07:03:27;16.50;99.90
17956;DHT22;27666;51.498;11.966;2022-09-01T07:06:15;16.40;99.90
17956;DHT22;27666;51.498;11.966;2022-09-01T07:09:22;16.50;99.90
17956;DHT22;27666;51.498;11.966;2022-09-01T07:12:29;16.60;99.90
17956;DHT22;27666;51.498;11.966;2022-09-01T07:15:16;16.60;99.90
17956;DHT22;27666;51.498;11.966;2022-09-01T07:18:26;16.70;99.90
17956;DHT22;27666;51.498;11.966;2022-09-01T07:21:15;16.80;99.90
17956;DHT22;27666;51.498;11.966;2022-09-01T07:24:21;17.00;99.90
17956;DHT22;27666;51.498;11.966;2022-09-01T07:27:15;17.10;99.90
17956;DHT22;27666;51.498;11.966;2022-09-01T07:30:09;17.00;99.90
17956;DHT22;27666;51.498;11.966;2022-09-01T07:32:56;17.10;99.90
17956;DHT22;27666;51.498;11.966;2022-09-01T07:36:04;17.40;99.90
17956;DHT22;27666;51.498;11.966;2022-09-01T07:39:12;17.50;99.90
17956;DHT22;27666;51.498;11.966;2022-09-01T07:42:19;17.40;99.90
17956;DHT22;27666;51.498;11.966;2022-09-01T07:45:26;17.50;99.90
17956;DHT22;27666;51.498;11.966;2022-09-01T07:48:15;17.70;99.90
17956;DHT22;27666;51.498;11.966;2022-09-01T07:51:27;17.80;99.90
17956;DHT22;27666;51.498;11.966;2022-09-01T07:54:22;18.00;99.90
17956;DHT22;27666;51.498;11.966;2022-09-01T07:57:09;18.10;99.90
17956;DHT22;27666;51.498;11.966;2022-09-01T07:59:56;18.20;99.90
17956;DHT22;27666;51.498;11.966;2022-09-01T08:02:43;18.40;99.90
17956;DHT22;27666;51.498;11.966;2022-09-01T08:05:31;18.30;99.90
17956;DHT22;27666;51.498;11.966;2022-09-01T08:08:19;18.30;99.90
17956;DHT22;27666;51.498;11.966;2022-09-01T08:11:16;18.40;99.90
17956;DHT22;27666;51.498;11.966;2022-09-01T08:14:23;18.50;99.90
17956;DHT22;27666;51.498;11.966;2022-09-01T08:17:10;18.70;99.90
17956;DHT22;27666;51.498;11.966;2022-09-01T08:20:17;18.80;99.90
17956;DHT22;27666;51.498;11.966;2022-09-01T08:23:04;19.10;99.90
17956;DHT22;27666;51.498;11.966;2022-09-01T08:25:53;19.10;99.90
17956;DHT22;27666;51.498;11.966;2022-09-01T08:28:39;19.30;99.90
17956;DHT22;27666;51.498;11.966;2022-09-01T08:31:30;19.40;99.90
17956;DHT22;27666;51.498;11.966;2022-09-01T08:34:17;19.40;99.90
17956;DHT22;27666;51.498;11.966;2022-09-01T08:37:04;19.40;99.90
17956;DHT22;27666;51.498;11.966;2022-09-01T08:39:51;19.30;99.90
17956;DHT22;27666;51.498;11.966;2022-09-01T08:42:47;19.30;99.90
17956;DHT22;27666;51.498;11.966;2022-09-01T08:45:40;19.40;99.90
17956;DHT22;27666;51.498;11.966;2022-09-01T08:48:34;19.30;99.90
17956;DHT22;27666;51.498;11.966;2022-09-01T08:51:45;19.30;99.90
17956;DHT22;27666;51.498;11.966;2022-09-01T08:54:38;19.50;99.90
17956;DHT22;27666;51.498;11.966;2022-09-01T08:57:31;19.70;99.90
17956;DHT22;27666;51.498;11.966;2022-09-01T09:00:25;19.80;99.90
17956;DHT22;27666;51.498;11.966;2022-09-01T09:03:17;19.70;99.90
17956;DHT22;27666;51.498;11.966;2022-09-01T09:06:13;19.80;99.90
17956;DHT22;27666;51.498;11.966;2022-09-01T09:09:04;20.00;99.90
17956;DHT22;27666;51.498;11.966;2022-09-01T09:15:18;20.40;99.90
17956;DHT22;27666;51.498;11.966;2022-09-01T09:18:23;20.60;99.90
17956;DHT22;27666;51.498;11.966;2022-09-01T09:21:26;21.00;99.90
17956;DHT22;27666;51.498;11.966;2022-09-01T09:24:18;21.10;99.90
17956;DHT22;27666;51.498;11.966;2022-09-01T09:27:07;21.30;99.90
17956;DHT22;27666;51.498;11.966;2022-09-01T09:29:57;21.40;99.90
17956;DHT22;27666;51.498;11.966;2022-09-01T09:32:52;21.30;99.90
17956;DHT22;27666;51.498;11.966;2022-09-01T09:36:15;21.30;99.90
17956;DHT22;27666;51.498;11.966;2022-09-01T09:39:09;21.30;99.90
17956;DHT22;27666;51.498;11.966;2022-09-01T09:42:05;21.40;99.90
17956;DHT22;27666;51.498;11.966;2022-09-01T09:44:54;21.30;99.90
17956;DHT22;27666;51.498;11.966;2022-09-01T09:47:44;21.10;99.90
17956;DHT22;27666;51.498;11.966;2022-09-01T09:50:32;21.10;99.90
17956;DHT22;27666;51.498;11.966;2022-09-01T09:53:28;21.40;99.90
17956;DHT22;27666;51.498;11.966;2022-09-01T09:56:18;21.60;99.90
17956;DHT22;27666;51.498;11.966;2022-09-01T09:59:17;21.90;99.90
17956;DHT22;27666;51.498;11.966;2022-09-01T10:02:26;21.90;99.90
17956;DHT22;27666;51.498;11.966;2022-09-01T10:05:26;22.00;99.90
17956;DHT22;27666;51.498;11.966;2022-09-01T10:08:39;22.10;99.90
17956;DHT22;27666;51.498;11.966;2022-09-01T10:11:35;22.00;99.90
17956;DHT22;27666;51.498;11.966;2022-09-01T10:14:29;22.10;99.80
17956;DHT22;27666;51.498;11.966;2022-09-01T10:17:38;22.30;99.90
17956;DHT22;27666;51.498;11.966;2022-09-01T10:20:28;22.50;98.50
17956;DHT22;27666;51.498;11.966;2022-09-01T10:23:15;22.80;97.60
17956;DHT22;27666;51.498;11.966;2022-09-01T10:26:08;22.90;97.60
17956;DHT22;27666;51.498;11.966;2022-09-01T10:28:58;22.90;97.30
17956;DHT22;27666;51.498;11.966;2022-09-01T10:31:46;22.90;97.00
17956;DHT22;27666;51.498;11.966;2022-09-01T10:34:35;22.50;95.20
17956;DHT22;27666;51.498;11.966;2022-09-01T10:37:26;22.20;94.30
17956;DHT22;27666;51.498;11.966;2022-09-01T10:40:38;21.80;93.90
17956;DHT22;27666;51.498;11.966;2022-09-01T10:43:38;21.70;93.80
17956;DHT22;27666;51.498;11.966;2022-09-01T10:46:43;21.50;93.90
17956;DHT22;27666;51.498;11.966;2022-09-01T10:52:57;21.60;94.10
17956;DHT22;27666;51.498;11.966;2022-09-01T10:55:46;21.60;91.50
17956;DHT22;27666;51.498;11.966;2022-09-01T10:58:52;21.70;91.60
17956;DHT22;27666;51.498;11.966;2022-09-01T11:02:10;21.80;92.50
17956;DHT22;27666;51.498;11.966;2022-09-01T11:05:17;21.90;93.00
17956;DHT22;27666;51.498;11.966;2022-09-01T11:08:22;22.00;92.00
17956;DHT22;27666;51.498;11.966;2022-09-01T11:11:16;22.00;91.70
17956;DHT22;27666;51.498;11.966;2022-09-01T11:14:17;22.20;90.40
17956;DHT22;27666;51.498;11.966;2022-09-01T11:17:15;22.50;90.50
17956;DHT22;27666;51.498;11.966;2022-09-01T11:20:07;22.60;90.60
17956;DHT22;27666;51.498;11.966;2022-09-01T11:23:00;22.80;86.00
17956;DHT22;27666;51.498;11.966;2022-09-01T11:25:48;22.70;85.60
17956;DHT22;27666;51.498;11.966;2022-09-01T11:28:55;22.60;86.90
17956;DHT22;27666;51.498;11.966;2022-09-01T11:31:43;22.40;87.20
17956;DHT22;27666;51.498;11.966;2022-09-01T11:34:30;22.30;88.10
17956;DHT22;27666;51.498;11.966;2022-09-01T11:37:21;22.10;88.60
17956;DHT22;27666;51.498;11.966;2022-09-01T11:40:19;22.00;86.90
17956;DHT22;27666;51.498;11.966;2022-09-01T11:43:10;21.90;86.90
17956;DHT22;27666;51.498;11.966;2022-09-01T11:46:06;21.90;87.70
17956;DHT22;27666;51.498;11.966;2022-09-01T11:49:00;21.90;87.40
17956;DHT22;27666;51.498;11.966;2022-09-01T11:51:48;22.00;87.60
17956;DHT22;27666;51.498;11.966;2022-09-01T11:54:41;22.00;87.70
17956;DHT22;27666;51.498;11.966;2022-09-01T11:57:30;21.90;86.00
17956;DHT22;27666;51.498;11.966;2022-09-01T12:00:26;21.70;85.50
17956;DHT22;27666;51.498;11.966;2022-09-01T12:03:20;21.60;84.90
17956;DHT22;27666;51.498;11.966;2022-09-01T12:06:11;21.50;83.20
17956;DHT22;27666;51.498;11.966;2022-09-01T12:09:00;21.40;82.90
17956;DHT22;27666;51.498;11.966;2022-09-01T12:11:48;21.40;81.90
17956;DHT22;27666;51.498;11.966;2022-09-01T12:14:35;21.40;82.70
17956;DHT22;27666;51.498;11.966;2022-09-01T12:17:42;21.30;82.80
17956;DHT22;27666;51.498;11.966;2022-09-01T12:20:31;21.40;83.20
17956;DHT22;27666;51.498;11.966;2022-09-01T12:23:25;21.30;84.00
17956;DHT22;27666;51.498;11.966;2022-09-01T12:26:14;21.20;83.00
17956;DHT22;27666;51.498;11.966;2022-09-01T12:29:01;21.30;83.30
17956;DHT22;27666;51.498;11.966;2022-09-01T12:31:49;21.30;82.90
17956;DHT22;27666;51.498;11.966;2022-09-01T12:34:39;21.40;83.40
17956;DHT22;27666;51.498;11.966;2022-09-01T12:37:26;21.50;83.40
17956;DHT22;27666;51.498;11.966;2022-09-01T12:40:29;21.80;83.70
17956;DHT22;27666;51.498;11.966;2022-09-01T12:43:33;22.00;82.00
17956;DHT22;27666;51.498;11.966;2022-09-01T12:46:41;22.30;80.40
17956;DHT22;27666;51.498;11.966;2022-09-01T12:49:38;22.20;79.60
17956;DHT22;27666;51.498;11.966;2022-09-01T12:52:43;22.00;79.10
17956;DHT22;27666;51.498;11.966;2022-09-01T12:55:33;21.80;79.40
17956;DHT22;27666;51.498;11.966;2022-09-01T12:58:35;21.60;79.50
17956;DHT22;27666;51.498;11.966;2022-09-01T13:01:26;21.50;80.40
17956;DHT22;27666;51.498;11.966;2022-09-01T13:04:29;21.50;80.60
17956;DHT22;27666;51.498;11.966;2022-09-01T13:07:17;21.50;80.40
17956;DHT22;27666;51.498;11.966;2022-09-01T13:10:03;21.70;80.10
17956;DHT22;27666;51.498;11.966;2022-09-01T13:12:53;21.70;79.60
17956;DHT22;27666;51.498;11.966;2022-09-01T13:15:43;22.00;79.70
17956;DHT22;27666;51.498;11.966;2022-09-01T13:18:32;22.10;79.70
17956;DHT22;27666;51.498;11.966;2022-09-01T13:21:38;22.20;79.40
17956;DHT22;27666;51.498;11.966;2022-09-01T13:24:30;22.40;80.60
17956;DHT22;27666;51.498;11.966;2022-09-01T13:27:18;22.50;80.40
17956;DHT22;27666;51.498;11.966;2022-09-01T13:30:09;22.70;80.30
17956;DHT22;27666;51.498;11.966;2022-09-01T13:32:56;22.50;80.40
17956;DHT22;27666;51.498;11.966;2022-09-01T13:36:04;22.40;80.80
17956;DHT22;27666;51.498;11.966;2022-09-01T13:39:11;22.50;79.50
17956;DHT22;27666;51.498;11.966;2022-09-01T13:41:57;22.40;80.00
17956;DHT22;27666;51.498;11.966;2022-09-01T13:44:43;22.40;80.00
17956;DHT22;27666;51.498;11.966;2022-09-01T13:47:36;22.30;79.60
17956;DHT22;27666;51.498;11.966;2022-09-01T13:50:45;22.30;78.90
17956;DHT22;27666;51.498;11.966;2022-09-01T13:53:53;22.20;78.70
17956;DHT22;27666;51.498;11.966;2022-09-01T13:56:40;22.10;78.10
17956;DHT22;27666;51.498;11.966;2022-09-01T13:59:26;22.00;78.10
17956;DHT22;27666;51.498;11.966;2022-09-01T14:02:14;22.00;79.10
17956;DHT22;27666;51.498;11.966;2022-09-01T14:05:04;21.90;79.20
17956;DHT22;27666;51.498;11.966;2022-09-01T14:07:51;21.90;79.90
17956;DHT22;27666;51.498;11.966;2022-09-01T14:10:40;21.80;79.70
17956;DHT22;27666;51.498;11.966;2022-09-01T14:13:27;21.60;80.10
17956;DHT22;27666;51.498;11.966;2022-09-01T14:16:15;21.50;79.60
17956;DHT22;27666;51.498;11.966;2022-09-01T14:19:02;21.40;80.20
17956;DHT22;27666;51.498;11.966;2022-09-01T14:21:50;21.40;80.40
17956;DHT22;27666;51.498;11.966;2022-09-01T14:24:37;21.50;79.90
17956;DHT22;27666;51.498;11.966;2022-09-01T14:27:25;21.50;79.50
17956;DHT22;27666;51.498;11.966;2022-09-01T14:30:14;21.50;79.70
17956;DHT22;27666;51.498;11.966;2022-09-01T14:33:01;21.60;80.00
17956;DHT22;27666;51.498;11.966;2022-09-01T14:35:48;21.60;79.20
17956;DHT22;27666;51.498;11.966;2022-09-01T14:38:35;21.60;78.80
17956;DHT22;27666;51.498;11.966;2022-09-01T14:41:23;21.60;79.30
17956;DHT22;27666;51.498;11.966;2022-09-01T14:44:11;21.60;79.90
17956;DHT22;27666;51.498;11.966;2022-09-01T14:46:57;21.70;79.90
17956;DHT22;27666;51.498;11.966;2022-09-01T14:49:44;21.80;78.90
17956;DHT22;27666;51.498;11.966;2022-09-01T14:52:31;21.80;79.00
17956;DHT22;27666;51.498;11.966;2022-09-01T14:55:18;21.80;79.20
17956;DHT22;27666;51.498;11.966;2022-09-01T14:58:05;21.70;78.60
17956;DHT22;27666;51.498;11.966;2022-09-01T15:00:52;21.60;78.90
17956;DHT22;27666;51.498;11.966;2022-09-01T15:03:52;21.50;79.00
17956;DHT22;27666;51.498;11.966;2022-09-01T15:06:39;21.50;78.50
17956;DHT22;27666;51.498;11.966;2022-09-01T15:09:25;21.50;78.80
17956;DHT22;27666;51.498;11.966;2022-09-01T15:12:13;21.60;78.00
17956;DHT22;27666;51.498;11.966;2022-09-01T15:15:00;21.70;78.40
17956;DHT22;27666;51.498;11.966;2022-09-01T15:17:46;21.60;78.20
17956;DHT22;27666;51.498;11.966;2022-09-01T15:20:35;21.60;78.40
17956;DHT22;27666;51.498;11.966;2022-09-01T15:23:34;21.60;78.00
17956;DHT22;27666;51.498;11.966;2022-09-01T15:26:21;21.50;79.00
17956;DHT22;27666;51.498;11.966;2022-09-01T15:29:09;21.50;79.40
17956;DHT22;27666;51.498;11.966;2022-09-01T15:31:57;21.60;79.50
17956;DHT22;27666;51.498;11.966;2022-09-01T15:34:43;21.40;79.20
17956;DHT22;27666;51.498;11.966;2022-09-01T15:37:33;21.40;79.50
17956;DHT22;27666;51.498;11.966;2022-09-01T15:40:19;21.40;80.00
17956;DHT22;27666;51.498;11.966;2022-09-01T15:43:07;21.30;80.10
17956;DHT22;27666;51.498;11.966;2022-09-01T15:45:56;21.30;79.60
17956;DHT22;27666;51.498;11.966;2022-09-01T15:48:43;21.30;79.50
17956;DHT22;27666;51.498;11.966;2022-09-01T15:51:32;21.30;79.10
17956;DHT22;27666;51.498;11.966;2022-09-01T15:54:19;21.30;79.30
17956;DHT22;27666;51.498;11.966;2022-09-01T15:57:06;21.20;79.60
17956;DHT22;27666;51.498;11.966;2022-09-01T15:59:53;21.30;78.70
17956;DHT22;27666;51.498;11.966;2022-09-01T16:02:41;21.20;78.60
17956;DHT22;27666;51.498;11.966;2022-09-01T16:05:29;21.20;80.00
17956;DHT22;27666;51.498;11.966;2022-09-01T16:08:16;21.20;79.60
17956;DHT22;27666;51.498;11.966;2022-09-01T16:11:05;21.20;79.00
17956;DHT22;27666;51.498;11.966;2022-09-01T16:13:54;21.30;78.20
17956;DHT22;27666;51.498;11.966;2022-09-01T16:16:50;21.30;77.90
17956;DHT22;27666;51.498;11.966;2022-09-01T16:19:47;21.30;77.90
17956;DHT22;27666;51.498;11.966;2022-09-01T16:22:37;21.20;78.00
17956;DHT22;27666;51.498;11.966;2022-09-01T16:25:30;21.10;77.80
17956;DHT22;27666;51.498;11.966;2022-09-01T16:28:25;21.10;78.10
17956;DHT22;27666;51.498;11.966;2022-09-01T16:31:13;21.10;78.40
17956;DHT22;27666;51.498;11.966;2022-09-01T16:34:10;21.10;78.30
17956;DHT22;27666;51.498;11.966;2022-09-01T16:37:04;21.10;78.40
17956;DHT22;27666;51.498;11.966;2022-09-01T16:39:57;21.10;78.20
17956;DHT22;27666;51.498;11.966;2022-09-01T16:42:59;21.10;78.10
17956;DHT22;27666;51.498;11.966;2022-09-01T16:45:55;21.00;78.50
17956;DHT22;27666;51.498;11.966;2022-09-01T16:48:50;21.00;78.60
17956;DHT22;27666;51.498;11.966;2022-09-01T16:51:50;20.90;79.00
17956;DHT22;27666;51.498;11.966;2022-09-01T16:54:50;20.90;79.40
17956;DHT22;27666;51.498;11.966;2022-09-01T16:57:45;20.90;78.90
17956;DHT22;27666;51.498;11.966;2022-09-01T17:00:46;20.90;79.10
17956;DHT22;27666;51.498;11.966;2022-09-01T17:03:52;20.80;79.40
17956;DHT22;27666;51.498;11.966;2022-09-01T17:06:49;20.80;79.10
17956;DHT22;27666;51.498;11.966;2022-09-01T17:09:42;20.80;79.30
17956;DHT22;27666;51.498;11.966;2022-09-01T17:12:37;20.80;79.40
17956;DHT22;27666;51.498;11.966;2022-09-01T17:15:30;20.70;79.80
17956;DHT22;27666;51.498;11.966;2022-09-01T17:18:31;20.60;79.30
17956;DHT22;27666;51.498;11.966;2022-09-01T17:21:21;20.70;79.60
17956;DHT22;27666;51.498;11.966;2022-09-01T17:24:16;20.60;79.70
17956;DHT22;27666;51.498;11.966;2022-09-01T17:27:17;20.60;79.70
17956;DHT22;27666;51.498;11.966;2022-09-01T17:30:05;20.50;79.90
17956;DHT22;27666;51.498;11.966;2022-09-01T17:33:06;20.50;80.20
17956;DHT22;27666;51.498;11.966;2022-09-01T17:36:11;20.50;80.30
17956;DHT22;27666;51.498;11.966;2022-09-01T17:39:09;20.40;80.50
17956;DHT22;27666;51.498;11.966;2022-09-01T17:42:03;20.40;80.80
17956;DHT22;27666;51.498;11.966;2022-09-01T17:44:54;20.30;81.10
17956;DHT22;27666;51.498;11.966;2022-09-01T17:47:48;20.20;81.40
17956;DHT22;27666;51.498;11.966;2022-09-01T17:50:48;20.10;81.40
17956;DHT22;27666;51.498;11.966;2022-09-01T17:53:50;20.10;81.80